Genco Aquitaine — V7DT9 — position and weather

sailwx.info

Track history (hours):
 
Tides and Currents Weather Stations Pressure Air Temp Water Temp Dewpoint Dewpoint Depression Visibility Wind Speed Wind Dir Waves Ship Positions

Genco Aquitaine

Last reported at 2017-Dec-03 05:12 UTC. Time now 2018-Jan-22 15:54 UTC.
Position N 31°07' E 032°19'.
Warning: this ship's position is 50 days out of date.

Length 189 m; draft 6.1 m.

Type: Ship. MMSI: 367033036.

Date/timePositionNaut miles runAvg speedWind from/ knotsBaromVisibWave heightAir tempDewpointWater temp
2017-Dec-03 05:12N 31°07' E 032°19'2 9.2
2017-Dec-03 05:01N 31°09' E 032°19'4 7.7
2017-Dec-03 04:30N 31°13' E 032°20'9 6.5
2017-Dec-03 03:05N 31°22' E 032°23'1 7.5
2017-Dec-03 02:56N 31°23' E 032°23'3 5.8
2017-Dec-03 02:28N 31°24' E 032°21'2 4.5
2017-Dec-03 01:58N 31°23' E 032°18'1 0.7
2017-Dec-03 00:56N 31°23' E 032°18'0 0.0
2017-Dec-03 00:26N 31°23' E 032°18'12 2.0
2017-Dec-02 18:13N 31°33' E 032°10'313.0
2017-Dec-02 17:58N 31°36' E 032°08'38013.2
2017-Dec-01 13:17N 36°16' E 026°59'712.5
2017-Dec-01 12:43N 36°21' E 026°53'412.8
2017-Dec-01 12:24N 36°24' E 026°50'812.6
2017-Dec-01 11:44N 36°30' E 026°43'312.4
2017-Dec-01 11:31N 36°32' E 026°40'612.6
2017-Dec-01 11:00N 36°37' E 026°35'612.7
2017-Dec-01 10:30N 36°42' E 026°30'612.5
2017-Dec-01 10:00N 36°47' E 026°25'612.8
2017-Dec-01 09:31N 36°51' E 026°19'612.7
2017-Dec-01 09:01N 36°56' E 026°14'612.8
2017-Dec-01 08:31N 37°01' E 026°09'612.9
2017-Dec-01 08:00N 37°07' E 026°06'611.4
2017-Dec-01 07:30N 37°12' E 026°03'612.7
2017-Dec-01 07:01N 37°18' E 025°59'713.3
2017-Dec-01 06:31N 37°23' E 025°55'612.2
2017-Dec-01 06:01N 37°29' E 025°51'611.7
2017-Dec-01 05:31N 37°35' E 025°50'711.6
2017-Dec-01 04:56N 37°41' E 025°50'611.3
2017-Dec-01 04:26N 37°47' E 025°49'711.2
2017-Dec-01 03:50N 37°54' E 025°48'711.6
2017-Dec-01 03:13N 38°01' E 025°47'211.7
2017-Dec-01 03:00N 38°03' E 025°47'611.5
2017-Dec-01 02:29N 38°09' E 025°46'611.4
2017-Dec-01 01:59N 38°15' E 025°46'2410.9
2017-Nov-30 23:48N 38°39' E 025°45'410.4
2017-Nov-30 23:27N 38°42' E 025°45'  
2017-Nov-27 22:45N 44°25' E 037°22'312.4
2017-Nov-27 22:30N 44°27' E 037°26'612.5
2017-Nov-27 22:00N 44°29' E 037°33'612.8
2017-Nov-27 21:30N 44°32' E 037°41'612.4
2017-Nov-27 21:00N 44°36' E 037°48'4 8.5
2017-Nov-27 20:30N 44°40' E 037°51'0 0.8
2017-Nov-27 19:58N 44°41' E 037°51'0 0.3
2017-Nov-27 19:28N 44°41' E 037°51'0 0.3
2017-Nov-27 18:58N 44°41' E 037°51'0 0.1
2017-Nov-27 18:28N 44°41' E 037°51'0 0.1
2017-Nov-27 17:58N 44°41' E 037°51'0 0.1
2017-Nov-27 17:25N 44°41' E 037°51'1 2.4
2017-Nov-27 17:00N 44°41' E 037°50'2 3.5
2017-Nov-27 16:30N 44°43' E 037°49'0 0.7
2017-Nov-27 15:59N 44°43' E 037°49'0 0.0
2017-Nov-27 15:29N 44°43' E 037°49'0 0.0
2017-Nov-27 14:59N 44°43' E 037°49'0 0.0
2017-Nov-27 14:29N 44°43' E 037°49'0 0.0
2017-Nov-27 13:59N 44°43' E 037°49'0 0.0
2017-Nov-27 13:29N 44°43' E 037°49'0 0.0
2017-Nov-27 12:59N 44°43' E 037°49'0 0.0
2017-Nov-27 12:29N 44°43' E 037°49'0 0.0
2017-Nov-27 11:59N 44°43' E 037°49'0 0.0
2017-Nov-27 11:29N 44°43' E 037°49'0 0.0
2017-Nov-27 10:56N 44°43' E 037°49'0 0.0
2017-Nov-27 10:29N 44°43' E 037°49'0 0.0
2017-Nov-27 09:59N 44°43' E 037°49'0 0.0
2017-Nov-27 09:29N 44°43' E 037°49'0 0.0
2017-Nov-27 08:59N 44°43' E 037°49'0 0.0
2017-Nov-27 08:29N 44°43' E 037°49'0 0.0
2017-Nov-27 07:59N 44°43' E 037°49'0 0.0
2017-Nov-27 07:29N 44°43' E 037°49'0 0.0
2017-Nov-27 06:59N 44°43' E 037°49'0 0.0
2017-Nov-27 06:29N 44°43' E 037°49'0 0.0
2017-Nov-27 05:59N 44°43' E 037°49'0 0.0
2017-Nov-27 05:29N 44°43' E 037°49'0 0.0
2017-Nov-27 04:59N 44°43' E 037°49'0 0.0
2017-Nov-27 04:29N 44°43' E 037°49'0 0.0
2017-Nov-27 03:59N 44°43' E 037°49'0 0.0
2017-Nov-27 03:29N 44°43' E 037°49'0 0.0
2017-Nov-27 02:59N 44°43' E 037°49'0 0.0
2017-Nov-27 02:29N 44°43' E 037°49'0 0.0
2017-Nov-27 01:59N 44°43' E 037°49'0 0.0
2017-Nov-27 01:29N 44°43' E 037°49'0 0.0
2017-Nov-27 00:59N 44°43' E 037°49'0 0.0
2017-Nov-27 00:29N 44°43' E 037°49'0 0.0
2017-Nov-26 23:59N 44°43' E 037°49'0 0.0
2017-Nov-26 23:29N 44°43' E 037°49'0 0.0
2017-Nov-26 22:59N 44°43' E 037°49'0 0.0
2017-Nov-26 22:29N 44°43' E 037°49'0 0.0
2017-Nov-26 21:59N 44°43' E 037°49'0 0.0
2017-Nov-26 21:29N 44°43' E 037°49'0 0.0
2017-Nov-26 20:59N 44°43' E 037°49'0 0.0
2017-Nov-26 20:29N 44°43' E 037°49'0 0.0
2017-Nov-26 19:59N 44°43' E 037°49'0 0.0
2017-Nov-26 19:29N 44°43' E 037°49'0 0.0
2017-Nov-26 18:59N 44°43' E 037°49'0 0.0
2017-Nov-26 18:29N 44°43' E 037°49'0 0.0
2017-Nov-26 17:59N 44°43' E 037°49'0 0.0
2017-Nov-26 17:29N 44°43' E 037°49'0 0.0
2017-Nov-26 16:59N 44°43' E 037°49'0 0.0
2017-Nov-26 16:29N 44°43' E 037°49'0 0.0
2017-Nov-26 15:59N 44°43' E 037°49'0 0.0
2017-Nov-26 15:29N 44°43' E 037°49'0 0.0
2017-Nov-26 14:59N 44°43' E 037°49'0 0.0
2017-Nov-26 14:29N 44°43' E 037°49'0 0.0
2017-Nov-26 13:59N 44°43' E 037°49'0 0.0
2017-Nov-26 13:29N 44°43' E 037°49'0 0.0
2017-Nov-26 12:59N 44°43' E 037°49'0 0.0
2017-Nov-26 12:29N 44°43' E 037°49'0 0.0
2017-Nov-26 11:59N 44°43' E 037°49'0 0.0
2017-Nov-26 11:29N 44°43' E 037°49'0 0.0
2017-Nov-26 10:59N 44°43' E 037°49'0 0.0
2017-Nov-26 10:29N 44°43' E 037°49'0 0.0
2017-Nov-26 09:59N 44°43' E 037°49'0 0.0
2017-Nov-26 09:29N 44°43' E 037°49'0 0.0
2017-Nov-26 08:59N 44°43' E 037°49'0 0.0
2017-Nov-26 08:29N 44°43' E 037°49'0 0.0
2017-Nov-26 07:59N 44°43' E 037°49'0 0.0
2017-Nov-26 07:29N 44°43' E 037°49'0 0.0
2017-Nov-26 06:59N 44°43' E 037°49'0 0.0
2017-Nov-26 06:29N 44°43' E 037°49'0 0.0
2017-Nov-26 05:59N 44°43' E 037°49'0 0.0
2017-Nov-26 05:29N 44°43' E 037°49'0 0.0
2017-Nov-26 04:59N 44°43' E 037°49'0 0.0
2017-Nov-26 04:29N 44°43' E 037°49'0 0.0
2017-Nov-26 03:59N 44°43' E 037°49'0 0.0
2017-Nov-26 03:29N 44°43' E 037°49'0 0.0
2017-Nov-26 02:59N 44°43' E 037°49'0 0.0
2017-Nov-26 02:29N 44°43' E 037°49'0 0.0
2017-Nov-26 01:59N 44°43' E 037°49'0 0.0
2017-Nov-26 01:29N 44°43' E 037°49'0 0.0
2017-Nov-26 00:59N 44°43' E 037°49'1 1.4
2017-Nov-26 00:30N 44°43' E 037°49'2 4.1
2017-Nov-26 00:00N 44°41' E 037°50'4 7.1
2017-Nov-25 23:30N 44°38' E 037°52'3 6.4
2017-Nov-25 23:00N 44°35' E 037°55'0 0.0
2017-Nov-25 22:30N 44°35' E 037°55'0 0.0
2017-Nov-25 22:00N 44°35' E 037°55'0 0.0
2017-Nov-25 21:30N 44°35' E 037°55'0 0.0
2017-Nov-25 21:00N 44°35' E 037°55'0 0.0
2017-Nov-25 20:30N 44°35' E 037°55'0 0.0
2017-Nov-25 20:00N 44°35' E 037°55'0 0.1
2017-Nov-25 19:30N 44°35' E 037°55'0 0.0
2017-Nov-25 19:00N 44°35' E 037°55'0 0.0
2017-Nov-25 18:30N 44°35' E 037°55'0 0.0
2017-Nov-25 18:00N 44°35' E 037°55'0 0.0
2017-Nov-25 17:30N 44°35' E 037°55'0 0.0
2017-Nov-25 17:00N 44°35' E 037°55'0 0.1
2017-Nov-25 16:27N 44°35' E 037°55'0 0.0
2017-Nov-25 16:00N 44°35' E 037°55'0 0.0
2017-Nov-25 15:30N 44°35' E 037°55'0 0.0
2017-Nov-25 15:00N 44°35' E 037°55'0 0.1
2017-Nov-25 14:30N 44°35' E 037°55'0 0.0
2017-Nov-25 14:00N 44°35' E 037°55'0 0.1
2017-Nov-25 13:30N 44°35' E 037°55'0 0.0
2017-Nov-25 13:00N 44°35' E 037°55'0 0.0
2017-Nov-25 12:30N 44°35' E 037°55'0 0.0
2017-Nov-25 12:00N 44°35' E 037°55'0 0.0
2017-Nov-25 11:30N 44°35' E 037°55'0 0.0
2017-Nov-25 11:00N 44°35' E 037°55'0 0.0
2017-Nov-25 10:30N 44°35' E 037°55'0 0.0
2017-Nov-25 10:00N 44°35' E 037°55'0 0.0
2017-Nov-25 09:30N 44°35' E 037°55'0 0.0
2017-Nov-25 09:00N 44°35' E 037°55'0 0.0
2017-Nov-25 08:27N 44°35' E 037°55'0 0.0
2017-Nov-25 08:00N 44°35' E 037°55'0 0.0
2017-Nov-25 07:30N 44°35' E 037°55'0 0.0
2017-Nov-25 07:00N 44°35' E 037°55'0 0.0
2017-Nov-25 06:30N 44°35' E 037°55'0 0.0
2017-Nov-25 06:00N 44°35' E 037°55'0 0.0
2017-Nov-25 05:30N 44°35' E 037°55'0 0.0
2017-Nov-25 05:00N 44°35' E 037°55'0 0.1
2017-Nov-25 04:30N 44°35' E 037°55'0 0.2
2017-Nov-25 04:00N 44°35' E 037°55'0 0.1
2017-Nov-25 03:30N 44°35' E 037°55'0 0.2
2017-Nov-25 03:00N 44°35' E 037°55'0 0.1
2017-Nov-25 02:30N 44°35' E 037°55'0 0.1
2017-Nov-25 02:00N 44°35' E 037°55'0 0.0
2017-Nov-25 01:27N 44°35' E 037°55'0 0.1
2017-Nov-25 00:57N 44°35' E 037°55'0 0.1
2017-Nov-25 00:30N 44°35' E 037°55'0 0.0
2017-Nov-25 00:00N 44°35' E 037°55'0 0.0
2017-Nov-24 23:30N 44°35' E 037°55'0 0.1
2017-Nov-24 23:00N 44°35' E 037°55'0 0.1
2017-Nov-24 22:27N 44°35' E 037°55'0 0.1
2017-Nov-24 22:00N 44°35' E 037°55'0 0.0
2017-Nov-24 21:30N 44°35' E 037°55'0 0.0
2017-Nov-24 21:00N 44°35' E 037°55'0 0.1
2017-Nov-24 20:30N 44°35' E 037°55'0 0.0
2017-Nov-24 20:00N 44°35' E 037°55'0 0.1
2017-Nov-24 19:30N 44°35' E 037°55'0 0.1
2017-Nov-24 19:00N 44°35' E 037°55'0 0.0
2017-Nov-24 18:30N 44°35' E 037°55'0 0.1
2017-Nov-24 18:00N 44°35' E 037°55'0 0.1
2017-Nov-24 17:30N 44°35' E 037°55'0 0.2
2017-Nov-24 17:00N 44°35' E 037°55'0 0.0
2017-Nov-24 16:30N 44°35' E 037°55'0 0.1
2017-Nov-24 16:00N 44°35' E 037°55'0 0.0
2017-Nov-24 15:30N 44°35' E 037°55'0 0.0
2017-Nov-24 15:00N 44°35' E 037°55'0 0.0
2017-Nov-24 14:30N 44°35' E 037°55'0 0.1
2017-Nov-24 14:00N 44°35' E 037°55'0 0.0
2017-Nov-24 13:30N 44°35' E 037°55'0 0.0
2017-Nov-24 13:00N 44°35' E 037°55'0 0.1
2017-Nov-24 12:30N 44°35' E 037°55'0 0.0
2017-Nov-24 12:00N 44°35' E 037°55'0 0.1
2017-Nov-24 11:30N 44°35' E 037°55'0 0.0
2017-Nov-24 11:00N 44°35' E 037°55'0 0.2
2017-Nov-24 10:30N 44°35' E 037°55'1 1.9
2017-Nov-24 10:00N 44°34' E 037°55'0 0.1
2017-Nov-24 09:30N 44°34' E 037°55'0 0.0
2017-Nov-24 09:00N 44°34' E 037°55'0 0.0
2017-Nov-24 08:30N 44°34' E 037°55'0 0.0
2017-Nov-24 08:00N 44°34' E 037°55'0 0.0
2017-Nov-24 07:30N 44°34' E 037°55'0 0.1
2017-Nov-24 07:00N 44°34' E 037°55'0 0.0
2017-Nov-24 06:30N 44°34' E 037°55'0 0.0
2017-Nov-24 06:00N 44°34' E 037°55'0 0.0
2017-Nov-24 05:30N 44°34' E 037°55'0 0.0
2017-Nov-24 05:00N 44°34' E 037°55'0 0.0
2017-Nov-24 04:30N 44°34' E 037°55'0 0.0
2017-Nov-24 04:00N 44°34' E 037°55'0 0.1
2017-Nov-24 03:30N 44°34' E 037°55'0 0.0
2017-Nov-24 03:00N 44°34' E 037°55'0 0.1
2017-Nov-24 02:30N 44°34' E 037°55'0 0.1
2017-Nov-24 02:00N 44°34' E 037°55'0 0.0
2017-Nov-24 01:30N 44°34' E 037°55'0 0.0
2017-Nov-24 01:00N 44°34' E 037°55'0 0.1
2017-Nov-24 00:30N 44°34' E 037°55'0 0.0
2017-Nov-24 00:00N 44°34' E 037°55'0 0.1
2017-Nov-23 23:30N 44°34' E 037°55'0 0.0
2017-Nov-23 23:00N 44°34' E 037°55'0 0.1
2017-Nov-23 22:30N 44°34' E 037°55'0 0.1
2017-Nov-23 22:00N 44°34' E 037°55'0 0.1
2017-Nov-23 21:30N 44°34' E 037°55'0 0.1
2017-Nov-23 21:00N 44°34' E 037°55'0 0.0
2017-Nov-23 20:30N 44°34' E 037°55'0 0.1
2017-Nov-23 20:00N 44°34' E 037°55'0 0.0
2017-Nov-23 19:30N 44°34' E 037°55'0 0.0
2017-Nov-23 19:00N 44°34' E 037°55'0 0.0
2017-Nov-23 18:30N 44°34' E 037°55'0 0.0
2017-Nov-23 18:00N 44°34' E 037°55'0 0.1
2017-Nov-23 17:30N 44°34' E 037°55'0 0.1
2017-Nov-23 17:00N 44°34' E 037°55'0 0.1
2017-Nov-23 16:30N 44°34' E 037°55'0 0.0
2017-Nov-23 16:00N 44°34' E 037°55'0 0.2
2017-Nov-23 15:30N 44°34' E 037°55'0 0.1
2017-Nov-23 15:00N 44°34' E 037°55'0 0.0
2017-Nov-23 14:24N 44°34' E 037°55'0 0.1
2017-Nov-23 13:57N 44°34' E 037°55'0 0.1
2017-Nov-23 13:30N 44°34' E 037°55'0 0.1
2017-Nov-23 13:00N 44°34' E 037°55'0 0.0
2017-Nov-23 12:30N 44°34' E 037°55'0 0.0
2017-Nov-23 12:00N 44°34' E 037°55'0 0.0
2017-Nov-23 11:30N 44°34' E 037°55'0 0.1
2017-Nov-23 11:00N 44°34' E 037°55'0 0.1
2017-Nov-23 10:30N 44°34' E 037°55'0 0.1
2017-Nov-23 10:00N 44°34' E 037°55'0 0.0
2017-Nov-23 09:30N 44°34' E 037°55'0 0.1
2017-Nov-23 09:00N 44°34' E 037°55'0 0.1
2017-Nov-23 08:30N 44°34' E 037°55'0 0.1
2017-Nov-23 08:00N 44°34' E 037°55'0 0.1
2017-Nov-23 07:30N 44°34' E 037°55'0 0.0
2017-Nov-23 07:00N 44°34' E 037°55'0 0.1
2017-Nov-23 06:30N 44°34' E 037°55'0 0.0
2017-Nov-23 06:00N 44°34' E 037°55'0 0.1
2017-Nov-23 05:30N 44°34' E 037°55'  
Track history (hours):
 
Tides and Currents Weather Stations Pressure Air Temp Water Temp Dewpoint Dewpoint Depression Visibility Wind Speed Wind Dir Waves Ship Positions

Genco Aquitaine

Last reported at 2017-Dec-03 05:12 UTC. Time now 2018-Jan-22 15:54 UTC.
Position N 31°07' E 032°19'.
Warning: this ship's position is 50 days out of date.

Length 189 m; draft 6.1 m.

Type: Ship. MMSI: 367033036.

Date/timePositionNaut miles runAvg speedWind from/ knotsBaromVisibWave heightAir tempDewpointWater temp
2017-Dec-03 05:12N 31°07' E 032°19'2 9.2
2017-Dec-03 05:01N 31°09' E 032°19'4 7.7
2017-Dec-03 04:30N 31°13' E 032°20'9 6.5
2017-Dec-03 03:05N 31°22' E 032°23'1 7.5
2017-Dec-03 02:56N 31°23' E 032°23'3 5.8
2017-Dec-03 02:28N 31°24' E 032°21'2 4.5
2017-Dec-03 01:58N 31°23' E 032°18'1 0.7
2017-Dec-03 00:56N 31°23' E 032°18'0 0.0
2017-Dec-03 00:26N 31°23' E 032°18'12 2.0
2017-Dec-02 18:13N 31°33' E 032°10'313.0
2017-Dec-02 17:58N 31°36' E 032°08'38013.2
2017-Dec-01 13:17N 36°16' E 026°59'712.5
2017-Dec-01 12:43N 36°21' E 026°53'412.8
2017-Dec-01 12:24N 36°24' E 026°50'812.6
2017-Dec-01 11:44N 36°30' E 026°43'312.4
2017-Dec-01 11:31N 36°32' E 026°40'612.6
2017-Dec-01 11:00N 36°37' E 026°35'612.7
2017-Dec-01 10:30N 36°42' E 026°30'612.5
2017-Dec-01 10:00N 36°47' E 026°25'612.8
2017-Dec-01 09:31N 36°51' E 026°19'612.7
2017-Dec-01 09:01N 36°56' E 026°14'612.8
2017-Dec-01 08:31N 37°01' E 026°09'612.9
2017-Dec-01 08:00N 37°07' E 026°06'611.4
2017-Dec-01 07:30N 37°12' E 026°03'612.7
2017-Dec-01 07:01N 37°18' E 025°59'713.3
2017-Dec-01 06:31N 37°23' E 025°55'612.2
2017-Dec-01 06:01N 37°29' E 025°51'611.7
2017-Dec-01 05:31N 37°35' E 025°50'711.6
2017-Dec-01 04:56N 37°41' E 025°50'611.3
2017-Dec-01 04:26N 37°47' E 025°49'711.2
2017-Dec-01 03:50N 37°54' E 025°48'711.6
2017-Dec-01 03:13N 38°01' E 025°47'211.7
2017-Dec-01 03:00N 38°03' E 025°47'611.5
2017-Dec-01 02:29N 38°09' E 025°46'611.4
2017-Dec-01 01:59N 38°15' E 025°46'2410.9
2017-Nov-30 23:48N 38°39' E 025°45'410.4
2017-Nov-30 23:27N 38°42' E 025°45'  
2017-Nov-27 22:45N 44°25' E 037°22'312.4
2017-Nov-27 22:30N 44°27' E 037°26'612.5
2017-Nov-27 22:00N 44°29' E 037°33'612.8
2017-Nov-27 21:30N 44°32' E 037°41'612.4
2017-Nov-27 21:00N 44°36' E 037°48'4 8.5
2017-Nov-27 20:30N 44°40' E 037°51'0 0.8
2017-Nov-27 19:58N 44°41' E 037°51'0 0.3
2017-Nov-27 19:28N 44°41' E 037°51'0 0.3
2017-Nov-27 18:58N 44°41' E 037°51'0 0.1
2017-Nov-27 18:28N 44°41' E 037°51'0 0.1
2017-Nov-27 17:58N 44°41' E 037°51'0 0.1
2017-Nov-27 17:25N 44°41' E 037°51'1 2.4
2017-Nov-27 17:00N 44°41' E 037°50'2 3.5
2017-Nov-27 16:30N 44°43' E 037°49'0 0.7
2017-Nov-27 15:59N 44°43' E 037°49'0 0.0
2017-Nov-27 15:29N 44°43' E 037°49'0 0.0
2017-Nov-27 14:59N 44°43' E 037°49'0 0.0
2017-Nov-27 14:29N 44°43' E 037°49'0 0.0
2017-Nov-27 13:59N 44°43' E 037°49'0 0.0
2017-Nov-27 13:29N 44°43' E 037°49'0 0.0
2017-Nov-27 12:59N 44°43' E 037°49'0 0.0
2017-Nov-27 12:29N 44°43' E 037°49'0 0.0
2017-Nov-27 11:59N 44°43' E 037°49'0 0.0
2017-Nov-27 11:29N 44°43' E 037°49'0 0.0
2017-Nov-27 10:56N 44°43' E 037°49'0 0.0
2017-Nov-27 10:29N 44°43' E 037°49'0 0.0
2017-Nov-27 09:59N 44°43' E 037°49'0 0.0
2017-Nov-27 09:29N 44°43' E 037°49'0 0.0
2017-Nov-27 08:59N 44°43' E 037°49'0 0.0
2017-Nov-27 08:29N 44°43' E 037°49'0 0.0
2017-Nov-27 07:59N 44°43' E 037°49'0 0.0
2017-Nov-27 07:29N 44°43' E 037°49'0 0.0
2017-Nov-27 06:59N 44°43' E 037°49'0 0.0
2017-Nov-27 06:29N 44°43' E 037°49'0 0.0
2017-Nov-27 05:59N 44°43' E 037°49'0 0.0
2017-Nov-27 05:29N 44°43' E 037°49'0 0.0
2017-Nov-27 04:59N 44°43' E 037°49'0 0.0
2017-Nov-27 04:29N 44°43' E 037°49'0 0.0
2017-Nov-27 03:59N 44°43' E 037°49'0 0.0
2017-Nov-27 03:29N 44°43' E 037°49'0 0.0
2017-Nov-27 02:59N 44°43' E 037°49'0 0.0
2017-Nov-27 02:29N 44°43' E 037°49'0 0.0
2017-Nov-27 01:59N 44°43' E 037°49'0 0.0
2017-Nov-27 01:29N 44°43' E 037°49'0 0.0
2017-Nov-27 00:59N 44°43' E 037°49'0 0.0
2017-Nov-27 00:29N 44°43' E 037°49'0 0.0
2017-Nov-26 23:59N 44°43' E 037°49'0 0.0
2017-Nov-26 23:29N 44°43' E 037°49'0 0.0
2017-Nov-26 22:59N 44°43' E 037°49'0 0.0
2017-Nov-26 22:29N 44°43' E 037°49'0 0.0
2017-Nov-26 21:59N 44°43' E 037°49'0 0.0
2017-Nov-26 21:29N 44°43' E 037°49'0 0.0
2017-Nov-26 20:59N 44°43' E 037°49'0 0.0
2017-Nov-26 20:29N 44°43' E 037°49'0 0.0
2017-Nov-26 19:59N 44°43' E 037°49'0 0.0
2017-Nov-26 19:29N 44°43' E 037°49'0 0.0
2017-Nov-26 18:59N 44°43' E 037°49'0 0.0
2017-Nov-26 18:29N 44°43' E 037°49'0 0.0
2017-Nov-26 17:59N 44°43' E 037°49'0 0.0
2017-Nov-26 17:29N 44°43' E 037°49'0 0.0
2017-Nov-26 16:59N 44°43' E 037°49'0 0.0
2017-Nov-26 16:29N 44°43' E 037°49'0 0.0
2017-Nov-26 15:59N 44°43' E 037°49'0 0.0
2017-Nov-26 15:29N 44°43' E 037°49'0 0.0
2017-Nov-26 14:59N 44°43' E 037°49'0 0.0
2017-Nov-26 14:29N 44°43' E 037°49'0 0.0
2017-Nov-26 13:59N 44°43' E 037°49'0 0.0
2017-Nov-26 13:29N 44°43' E 037°49'0 0.0
2017-Nov-26 12:59N 44°43' E 037°49'0 0.0
2017-Nov-26 12:29N 44°43' E 037°49'0 0.0
2017-Nov-26 11:59N 44°43' E 037°49'0 0.0
2017-Nov-26 11:29N 44°43' E 037°49'0 0.0
2017-Nov-26 10:59N 44°43' E 037°49'0 0.0
2017-Nov-26 10:29N 44°43' E 037°49'0 0.0
2017-Nov-26 09:59N 44°43' E 037°49'0 0.0
2017-Nov-26 09:29N 44°43' E 037°49'0 0.0
2017-Nov-26 08:59N 44°43' E 037°49'0 0.0
2017-Nov-26 08:29N 44°43' E 037°49'0 0.0
2017-Nov-26 07:59N 44°43' E 037°49'0 0.0
2017-Nov-26 07:29N 44°43' E 037°49'0 0.0
2017-Nov-26 06:59N 44°43' E 037°49'0 0.0
2017-Nov-26 06:29N 44°43' E 037°49'0 0.0
2017-Nov-26 05:59N 44°43' E 037°49'0 0.0
2017-Nov-26 05:29N 44°43' E 037°49'0 0.0
2017-Nov-26 04:59N 44°43' E 037°49'0 0.0
2017-Nov-26 04:29N 44°43' E 037°49'0 0.0
2017-Nov-26 03:59N 44°43' E 037°49'0 0.0
2017-Nov-26 03:29N 44°43' E 037°49'0 0.0
2017-Nov-26 02:59N 44°43' E 037°49'0 0.0
2017-Nov-26 02:29N 44°43' E 037°49'0 0.0
2017-Nov-26 01:59N 44°43' E 037°49'0 0.0
2017-Nov-26 01:29N 44°43' E 037°49'0 0.0
2017-Nov-26 00:59N 44°43' E 037°49'1 1.4
2017-Nov-26 00:30N 44°43' E 037°49'2 4.1
2017-Nov-26 00:00N 44°41' E 037°50'4 7.1
2017-Nov-25 23:30N 44°38' E 037°52'3 6.4
2017-Nov-25 23:00N 44°35' E 037°55'0 0.0
2017-Nov-25 22:30N 44°35' E 037°55'0 0.0
2017-Nov-25 22:00N 44°35' E 037°55'0 0.0
2017-Nov-25 21:30N 44°35' E 037°55'0 0.0
2017-Nov-25 21:00N 44°35' E 037°55'0 0.0
2017-Nov-25 20:30N 44°35' E 037°55'0 0.0
2017-Nov-25 20:00N 44°35' E 037°55'0 0.1
2017-Nov-25 19:30N 44°35' E 037°55'0 0.0
2017-Nov-25 19:00N 44°35' E 037°55'0 0.0
2017-Nov-25 18:30N 44°35' E 037°55'0 0.0
2017-Nov-25 18:00N 44°35' E 037°55'0 0.0
2017-Nov-25 17:30N 44°35' E 037°55'0 0.0
2017-Nov-25 17:00N 44°35' E 037°55'0 0.1
2017-Nov-25 16:27N 44°35' E 037°55'0 0.0
2017-Nov-25 16:00N 44°35' E 037°55'0 0.0
2017-Nov-25 15:30N 44°35' E 037°55'0 0.0
2017-Nov-25 15:00N 44°35' E 037°55'0 0.1
2017-Nov-25 14:30N 44°35' E 037°55'0 0.0
2017-Nov-25 14:00N 44°35' E 037°55'0 0.1
2017-Nov-25 13:30N 44°35' E 037°55'0 0.0
2017-Nov-25 13:00N 44°35' E 037°55'0 0.0
2017-Nov-25 12:30N 44°35' E 037°55'0 0.0
2017-Nov-25 12:00N 44°35' E 037°55'0 0.0
2017-Nov-25 11:30N 44°35' E 037°55'0 0.0
2017-Nov-25 11:00N 44°35' E 037°55'0 0.0
2017-Nov-25 10:30N 44°35' E 037°55'0 0.0
2017-Nov-25 10:00N 44°35' E 037°55'0 0.0
2017-Nov-25 09:30N 44°35' E 037°55'0 0.0
2017-Nov-25 09:00N 44°35' E 037°55'0 0.0
2017-Nov-25 08:27N 44°35' E 037°55'0 0.0
2017-Nov-25 08:00N 44°35' E 037°55'0 0.0
2017-Nov-25 07:30N 44°35' E 037°55'0 0.0
2017-Nov-25 07:00N 44°35' E 037°55'0 0.0
2017-Nov-25 06:30N 44°35' E 037°55'0 0.0
2017-Nov-25 06:00N 44°35' E 037°55'0 0.0
2017-Nov-25 05:30N 44°35' E 037°55'0 0.0
2017-Nov-25 05:00N 44°35' E 037°55'0 0.1
2017-Nov-25 04:30N 44°35' E 037°55'0 0.2
2017-Nov-25 04:00N 44°35' E 037°55'0 0.1
2017-Nov-25 03:30N 44°35' E 037°55'0 0.2
2017-Nov-25 03:00N 44°35' E 037°55'0 0.1
2017-Nov-25 02:30N 44°35' E 037°55'0 0.1
2017-Nov-25 02:00N 44°35' E 037°55'0 0.0
2017-Nov-25 01:27N 44°35' E 037°55'0 0.1
2017-Nov-25 00:57N 44°35' E 037°55'0 0.1
2017-Nov-25 00:30N 44°35' E 037°55'0 0.0
2017-Nov-25 00:00N 44°35' E 037°55'0 0.0
2017-Nov-24 23:30N 44°35' E 037°55'0 0.1
2017-Nov-24 23:00N 44°35' E 037°55'0 0.1
2017-Nov-24 22:27N 44°35' E 037°55'0 0.1
2017-Nov-24 22:00N 44°35' E 037°55'0 0.0
2017-Nov-24 21:30N 44°35' E 037°55'0 0.0
2017-Nov-24 21:00N 44°35' E 037°55'0 0.1
2017-Nov-24 20:30N 44°35' E 037°55'0 0.0
2017-Nov-24 20:00N 44°35' E 037°55'0 0.1
2017-Nov-24 19:30N 44°35' E 037°55'0 0.1
2017-Nov-24 19:00N 44°35' E 037°55'0 0.0
2017-Nov-24 18:30N 44°35' E 037°55'0 0.1
2017-Nov-24 18:00N 44°35' E 037°55'0 0.1
2017-Nov-24 17:30N 44°35' E 037°55'0 0.2
2017-Nov-24 17:00N 44°35' E 037°55'0 0.0
2017-Nov-24 16:30N 44°35' E 037°55'0 0.1
2017-Nov-24 16:00N 44°35' E 037°55'0 0.0
2017-Nov-24 15:30N 44°35' E 037°55'0 0.0
2017-Nov-24 15:00N 44°35' E 037°55'0 0.0
2017-Nov-24 14:30N 44°35' E 037°55'0 0.1
2017-Nov-24 14:00N 44°35' E 037°55'0 0.0
2017-Nov-24 13:30N 44°35' E 037°55'0 0.0
2017-Nov-24 13:00N 44°35' E 037°55'0 0.1
2017-Nov-24 12:30N 44°35' E 037°55'0 0.0
2017-Nov-24 12:00N 44°35' E 037°55'0 0.1
2017-Nov-24 11:30N 44°35' E 037°55'0 0.0
2017-Nov-24 11:00N 44°35' E 037°55'0 0.2
2017-Nov-24 10:30N 44°35' E 037°55'1 1.9
2017-Nov-24 10:00N 44°34' E 037°55'0 0.1
2017-Nov-24 09:30N 44°34' E 037°55'0 0.0
2017-Nov-24 09:00N 44°34' E 037°55'0 0.0
2017-Nov-24 08:30N 44°34' E 037°55'0 0.0
2017-Nov-24 08:00N 44°34' E 037°55'0 0.0
2017-Nov-24 07:30N 44°34' E 037°55'0 0.1
2017-Nov-24 07:00N 44°34' E 037°55'0 0.0
2017-Nov-24 06:30N 44°34' E 037°55'0 0.0
2017-Nov-24 06:00N 44°34' E 037°55'0 0.0
2017-Nov-24 05:30N 44°34' E 037°55'0 0.0
2017-Nov-24 05:00N 44°34' E 037°55'0 0.0
2017-Nov-24 04:30N 44°34' E 037°55'0 0.0
2017-Nov-24 04:00N 44°34' E 037°55'0 0.1
2017-Nov-24 03:30N 44°34' E 037°55'0 0.0
2017-Nov-24 03:00N 44°34' E 037°55'0 0.1
2017-Nov-24 02:30N 44°34' E 037°55'0 0.1
2017-Nov-24 02:00N 44°34' E 037°55'0 0.0
2017-Nov-24 01:30N 44°34' E 037°55'0 0.0
2017-Nov-24 01:00N 44°34' E 037°55'0 0.1
2017-Nov-24 00:30N 44°34' E 037°55'0 0.0
2017-Nov-24 00:00N 44°34' E 037°55'0 0.1
2017-Nov-23 23:30N 44°34' E 037°55'0 0.0
2017-Nov-23 23:00N 44°34' E 037°55'0 0.1
2017-Nov-23 22:30N 44°34' E 037°55'0 0.1
2017-Nov-23 22:00N 44°34' E 037°55'0 0.1
2017-Nov-23 21:30N 44°34' E 037°55'0 0.1
2017-Nov-23 21:00N 44°34' E 037°55'0 0.0
2017-Nov-23 20:30N 44°34' E 037°55'0 0.1
2017-Nov-23 20:00N 44°34' E 037°55'0 0.0
2017-Nov-23 19:30N 44°34' E 037°55'0 0.0
2017-Nov-23 19:00N 44°34' E 037°55'0 0.0
2017-Nov-23 18:30N 44°34' E 037°55'0 0.0
2017-Nov-23 18:00N 44°34' E 037°55'0 0.1
2017-Nov-23 17:30N 44°34' E 037°55'0 0.1
2017-Nov-23 17:00N 44°34' E 037°55'0 0.1
2017-Nov-23 16:30N 44°34' E 037°55'0 0.0
2017-Nov-23 16:00N 44°34' E 037°55'0 0.2
2017-Nov-23 15:30N 44°34' E 037°55'0 0.1
2017-Nov-23 15:00N 44°34' E 037°55'0 0.0
2017-Nov-23 14:24N 44°34' E 037°55'0 0.1
2017-Nov-23 13:57N 44°34' E 037°55'0 0.1
2017-Nov-23 13:30N 44°34' E 037°55'0 0.1
2017-Nov-23 13:00N 44°34' E 037°55'0 0.0
2017-Nov-23 12:30N 44°34' E 037°55'0 0.0
2017-Nov-23 12:00N 44°34' E 037°55'0 0.0
2017-Nov-23 11:30N 44°34' E 037°55'0 0.1
2017-Nov-23 11:00N 44°34' E 037°55'0 0.1
2017-Nov-23 10:30N 44°34' E 037°55'0 0.1
2017-Nov-23 10:00N 44°34' E 037°55'0 0.0
2017-Nov-23 09:30N 44°34' E 037°55'0 0.1
2017-Nov-23 09:00N 44°34' E 037°55'0 0.1
2017-Nov-23 08:30N 44°34' E 037°55'0 0.1
2017-Nov-23 08:00N 44°34' E 037°55'0 0.1
2017-Nov-23 07:30N 44°34' E 037°55'0 0.0
2017-Nov-23 07:00N 44°34' E 037°55'0 0.1
2017-Nov-23 06:30N 44°34' E 037°55'0 0.0
2017-Nov-23 06:00N 44°34' E 037°55'0 0.1
2017-Nov-23 05:30N 44°34' E 037°55'  

Dump ship's entire track history